This is the latest recevied weather packets stored in our database for station/object VK5FR. If no packets are shown the sender has not sent any weather packets the latest 10 day(s).
| Time | Temp. | Humidity | Pressure | Rain* | Wind** | Luminosity | Snow |
|---|---|---|---|---|---|---|---|
| 1777603303 | 25° C | 52% | 1014.6 hPa | 0 mm | - | - | - |
| 1777602998 | 24.44° C | 55% | 1014.4 hPa | 0 mm | - | - | - |
| 1777602694 | 23.89° C | 55% | 1014.4 hPa | 0 mm | - | - | - |
| 1777602389 | 24.44° C | 57% | 1014.8 hPa | 0 mm | - | - | - |
| 1777602086 | 25° C | 52% | 1014.7 hPa | 0 mm | - | - | - |
| 1777601781 | 25° C | 52% | 1014.8 hPa | 0 mm | - | - | - |
| 1777601476 | 25° C | 49% | 1014.9 hPa | 0 mm | - | - | - |
| 1777601172 | 24.44° C | 54% | 1015 hPa | 0 mm | - | - | - |
| 1777600870 | 24.44° C | 54% | 1014.9 hPa | 0 mm | - | - | - |
| 1777600565 | 24.44° C | 54% | 1014.7 hPa | 0 mm | - | - | - |
| 1777600261 | 25° C | 50% | 1015 hPa | 0 mm | - | - | - |
| 1777599957 | 25.56° C | 48% | 1015.1 hPa | 0 mm | - | - | - |
| 1777599654 | 26.67° C | 41% | 1015.2 hPa | 0 mm | - | - | - |
| 1777599350 | 27.22° C | 38% | 1015 hPa | 0 mm | - | - | - |
| 1777599047 | 27.22° C | 37% | 1014.9 hPa | 0 mm | - | - | - |
| 1777598745 | 26.67° C | 35% | 1015.3 hPa | 0 mm | - | - | - |
| 1777598440 | 26.67° C | 35% | 1015.2 hPa | 0 mm | - | - | - |
| 1777598139 | 26.67° C | 35% | 1015.3 hPa | 0 mm | - | - | - |
| 1777597833 | 26.67° C | 35% | 1015.3 hPa | 0 mm | - | - | - |
| 1777597527 | 26.67° C | 35% | 1015.2 hPa | 0 mm | - | - | - |
| 1777597224 | 26.67° C | 35% | 1015.5 hPa | 0 mm | - | - | - |
| 1777596919 | 26.11° C | 35% | 1015.3 hPa | 0 mm | - | - | - |
| 1777596615 | 26.11° C | 35% | 1015.4 hPa | 0 mm | - | - | - |
| 1777596312 | 26.11° C | 35% | 1015.2 hPa | 0 mm | - | - | - |
| 1777596010 | 25.56° C | 36% | 1015.5 hPa | 0 mm | - | - | - |
* Rain latest hour (hover to see other rain measurements)
** Current wind speed in m/s (hover to see current wind gust speed)